Time;durP1;ratioP1;P1;durP2;ratioP2;P2;SDS_P1;SDS_P2;PMS_P1;PMS_P2;Temp;Humidity;BMP_temperature;BMP_pressure;BME280_temperature;BME280_humidity;BME280_pressure;Samples;Min_cycle;Max_cycle;Signal;HPM_P1;HPM_P2
2022/01/24 00:04:40;;;;;;;6.03;3.90;;;6.30;78.40;;;6.85;52.77;100308.47;4882725;28;121124;-88
2022/01/24 00:10:51;;;;;;;6.60;3.90;;;5.60;77.90;;;6.82;53.10;100304.34;4900436;28;124823;-84
2022/01/24 00:17:31;;;;;;;6.33;4.50;;;5.70;78.30;;;6.79;53.04;100298.50;4901634;28;119903;-90
2022/01/24 00:31:03;;;;;;;6.53;4.43;;;6.10;79.00;;;6.61;53.92;100294.94;4900337;28;120824;-84
2022/01/24 00:37:18;;;;;;;7.33;4.73;;;4.90;78.20;;;6.56;53.68;100289.34;4901070;28;124732;-84
2022/01/24 00:46:48;;;;;;;6.03;4.07;;;5.00;78.70;;;6.53;54.17;100284.34;5564316;23;124750;-83
2022/01/24 00:56:39;;;;;;;7.67;5.10;;;4.70;78.90;;;6.38;54.49;100278.59;4920005;28;119933;-77
2022/01/24 01:02:55;;;;;;;6.63;5.00;;;4.60;79.00;;;6.39;54.01;100283.00;4919781;28;124667;-78
2022/01/24 01:22:00;;;;;;;10.83;6.00;;;4.60;79.60;;;6.24;55.25;100301.97;4920196;28;119920;-77
2022/01/24 01:28:09;;;;;;;8.50;5.70;;;4.60;79.90;;;6.18;55.51;100306.53;4919622;28;126062;-74
2022/01/24 06:19:56;;;;;;;7.20;5.47;;;4.10;88.30;;;4.87;60.58;100287.88;4938489;28;119816;-79
2022/01/24 06:22:43;;;;;;;8.53;5.80;;;4.50;87.80;;;4.90;60.70;100281.91;4937632;28;124135;-76
2022/01/24 06:30:23;;;;;;;9.03;6.03;;;4.40;87.30;;;4.85;59.61;100287.28;5325671;23;98370;-78
2022/01/24 06:33:48;;;;;;;7.63;5.37;;;4.30;86.80;;;4.87;59.46;100288.69;4915097;28;124571;-90
2022/01/24 07:21:20;;;;;;;9.90;6.57;;;4.70;88.40;;;5.25;59.38;100319.41;5676362;23;98498;-77
2022/01/24 07:27:29;;;;;;;11.53;6.63;;;3.50;86.90;;;5.19;59.66;100323.94;4921844;28;119958;-76
2022/01/24 07:33:40;;;;;;;12.03;6.37;;;4.40;87.50;;;5.18;59.36;100324.16;4921206;28;124727;-76
2022/01/24 08:03:34;;;;;;;10.07;6.63;;;3.90;86.40;;;5.26;59.08;100363.00;4919990;28;119800;-91
2022/01/24 08:06:01;;;;;;;13.23;6.80;;;6.10;88.50;;;5.24;59.20;100356.94;4919303;28;123468;-90
2022/01/24 08:12:13;;;;;;;11.60;8.03;;;3.20;85.80;;;5.28;58.96;100354.56;4901583;28;120361;-76
2022/01/24 08:18:21;;;;;;;11.40;7.63;;;4.50;87.10;;;5.18;59.11;100357.88;4911331;28;125035;-84
2022/01/24 08:20:50;;;;;;;11.90;7.57;;;4.30;86.90;;;5.18;59.05;100355.13;4917690;28;123304;-91
2022/01/24 08:26:59;;;;;;;11.70;7.90;;;3.30;86.30;;;5.28;58.89;100354.56;4920974;28;119983;-78
2022/01/24 08:30:04;;;;;;;11.50;7.93;;;3.40;86.20;;;5.35;59.50;100354.41;4918309;28;123745;-86
2022/01/24 08:32:32;;;;;;;17.67;8.23;;;4.10;87.00;;;5.29;59.32;100351.59;4883925;28;124407;-91
2022/01/24 08:47:35;;;;;;;9.30;7.00;;;4.20;87.20;;;5.61;59.09;100342.94;4920217;28;120653;-78
2022/01/24 08:50:59;;;;;;;10.73;6.83;;;6.30;88.80;;;5.72;58.88;100344.84;4919882;28;118533;-90
2022/01/24 08:54:23;;;;;;;11.33;7.60;;;4.60;87.40;;;5.76;58.70;100351.50;4895649;28;123660;-93
2022/01/24 09:00:32;;;;;;;12.47;7.30;;;3.80;86.50;;;5.87;58.94;100346.22;4899915;28;120296;-87
2022/01/24 09:06:41;;;;;;;11.47;7.20;;;4.50;87.00;;;5.98;59.10;100337.13;4909304;28;126351;-92
2022/01/24 09:12:50;;;;;;;12.37;7.93;;;5.30;87.60;;;6.11;58.38;100341.50;4919884;28;120302;-77
2022/01/24 09:15:17;;;;;;;11.13;8.43;;;5.90;87.80;;;6.18;58.10;100333.97;4911731;28;119461;-93
2022/01/24 09:18:23;;;;;;;14.83;9.57;;;6.60;88.30;;;6.26;57.95;100333.56;4895202;28;122976;-92
2022/01/24 09:20:52;;;;;;;11.87;8.10;;;4.10;85.80;;;6.27;57.84;100337.97;4883075;28;122654;-83
2022/01/24 09:27:01;;;;;;;13.13;8.00;;;5.30;86.70;;;6.37;58.22;100346.41;4920166;28;119864;-77
2022/01/24 09:33:12;;;;;;;10.40;7.80;;;4.30;85.40;;;6.49;57.83;100342.75;4919446;28;126055;-76
2022/01/24 09:45:45;;;;;;;12.97;9.13;;;6.00;86.20;;;6.71;56.90;100326.38;5341322;23;98833;-88
2022/01/24 09:52:11;;;;;;;11.17;8.37;;;5.80;85.20;;;6.66;56.79;100337.28;4843225;29;119239;-92
2022/01/24 09:58:20;;;;;;;11.40;7.77;;;4.50;84.00;;;6.75;57.25;100346.78;4855933;29;123822;-91
2022/01/24 10:04:31;;;;;;;12.90;7.50;;;6.10;85.30;;;6.84;56.38;100337.03;4880284;28;119945;-79
2022/01/24 10:07:18;;;;;;;15.63;9.07;;;5.90;84.80;;;6.89;56.48;100337.13;4863465;28;124526;-78
2022/01/24 10:10:05;;;;;;;10.27;7.33;;;6.20;84.80;;;6.91;56.33;100350.63;4862962;28;124209;-86
2022/01/24 10:16:25;;;;;;;11.50;7.47;;;5.00;83.50;;;7.00;55.54;100338.94;4844553;29;119949;-78
2022/01/24 10:19:33;;;;;;;11.20;7.67;;;6.30;84.10;;;7.04;55.30;100329.13;4861307;28;124418;-91
2022/01/24 10:22:05;;;;;;;11.20;8.03;;;6.40;84.30;;;7.12;55.77;100332.50;4897007;28;123535;-92
2022/01/24 10:28:24;;;;;;;12.80;9.03;;;6.50;84.30;;;7.27;55.27;100330.00;4901814;28;118124;-80
2022/01/24 10:34:36;;;;;;;11.27;7.47;;;6.30;83.80;;;7.39;54.85;100316.97;4900940;28;124734;-91
2022/01/24 10:37:04;;;;;;;15.20;8.77;;;6.70;83.80;;;7.42;54.42;100316.47;4883158;28;119501;-91
2022/01/24 10:40:20;;;;;;;13.50;9.17;;;6.70;83.20;;;7.48;54.72;100312.69;4889910;28;119664;-91
2022/01/24 10:47:55;;;;;;;12.53;7.50;;;6.00;82.50;;;7.68;54.67;100312.13;4900321;28;124332;-80
2022/01/24 10:54:30;;;;;;;11.73;8.03;;;6.70;82.40;;;7.81;54.20;100299.88;5439435;23;119999;-77
2022/01/24 11:00:50;;;;;;;9.30;6.90;;;7.20;82.90;;;8.10;54.18;100296.91;4922337;28;124764;-76
2022/01/24 11:07:03;;;;;;;8.10;5.83;;;7.50;82.50;;;8.39;53.22;100279.06;4922619;28;119922;-91
2022/01/24 11:09:50;;;;;;;13.00;7.23;;;7.60;82.20;;;8.51;52.75;100280.81;4902461;28;123656;-92
2022/01/24 11:16:00;;;;;;;8.53;5.33;;;7.80;81.80;;;8.79;52.03;100268.66;4901942;28;120277;-93
2022/01/24 11:23:08;;;;;;;7.13;5.47;;;8.30;80.20;;;9.10;51.41;100266.09;4901194;28;125292;-92
2022/01/24 11:26:33;;;;;;;8.07;5.00;;;8.20;79.90;;;9.26;51.13;100265.06;4910003;28;123571;-92
2022/01/24 11:29:03;;;;;;;8.70;5.33;;;8.50;79.70;;;9.41;50.85;100261.56;4912406;28;118949;-91
2022/01/24 11:32:11;;;;;;;8.93;6.47;;;10.30;80.30;;;9.57;49.92;100260.53;4887211;28;117845;-93
2022/01/24 11:34:39;;;;;;;10.90;7.30;;;8.70;78.80;;;9.70;49.67;100262.78;4884200;28;124243;-93
2022/01/24 11:37:45;;;;;;;7.10;5.67;;;9.00;78.30;;;9.84;49.92;100265.06;4881427;28;122976;-92
2022/01/24 11:40:57;;;;;;;8.00;5.90;;;9.10;78.50;;;10.00;49.61;100263.97;4882482;28;120166;-86
2022/01/24 11:47:22;;;;;;;7.03;5.77;;;9.30;78.40;;;10.37;49.49;100254.69;4900705;28;124406;-91
2022/01/24 11:53:41;;;;;;;5.77;4.33;;;9.70;78.10;;;10.80;48.21;100260.72;4896382;28;120360;-91
2022/01/24 11:56:31;;;;;;;7.47;4.73;;;9.90;78.10;;;11.00;48.06;100260.72;4864299;28;117726;-92
2022/01/24 11:59:35;;;;;;;8.30;6.77;;;9.90;77.50;;;11.21;46.83;100241.31;4871338;28;122470;-92
2022/01/24 12:02:15;;;;;;;7.00;5.10;;;10.30;74.70;;;11.32;46.96;100240.16;4870856;29;123761;-94
2022/01/24 12:08:33;;;;;;;5.33;4.20;;;10.50;74.70;;;11.68;46.78;100237.25;4884188;28;119525;-92
2022/01/24 12:11:32;;;;;;;8.20;5.93;;;10.70;74.90;;;11.87;45.75;100246.56;4887826;28;123591;-93
2022/01/24 12:14:36;;;;;;;7.43;4.30;;;11.00;73.50;;;11.98;45.97;100240.97;4877067;28;124480;-93
2022/01/24 12:17:10;;;;;;;6.87;4.23;;;11.20;73.60;;;12.16;45.76;100234.78;4870564;28;119368;-92
2022/01/24 12:20:31;;;;;;;4.70;4.07;;;11.30;73.50;;;12.37;45.06;100232.69;4857911;28;117521;-83
2022/01/24 12:26:49;;;;;;;4.33;3.07;;;11.60;72.50;;;12.74;44.88;100215.44;4900652;28;124818;-82
2022/01/24 12:30:14;;;;;;;4.87;4.17;;;11.90;72.60;;;12.95;44.11;100216.09;4884066;28;118571;-91
2022/01/24 12:36:46;;;;;;;4.97;3.43;;;12.30;71.30;;;13.26;43.51;100208.25;4876013;28;123967;-92
2022/01/24 12:43:28;;;;;;;3.50;2.67;;;12.70;70.00;;;13.62;42.80;100195.88;4871927;28;120802;-92
2022/01/24 12:48:40;;;;;;;4.67;2.83;;;13.10;69.80;;;13.93;42.49;100199.88;4877356;28;124029;-94
2022/01/24 12:51:07;;;;;;;3.20;2.80;;;13.20;69.40;;;14.09;42.11;100183.78;4885363;28;123798;-91
2022/01/24 12:53:39;;;;;;;3.73;2.60;;;13.40;69.10;;;14.29;41.68;100184.59;4881694;28;119081;-92
2022/01/24 12:56:13;;;;;;;4.53;3.50;;;13.60;68.80;;;14.45;41.21;100185.97;4845321;28;116964;-94
2022/01/24 12:58:43;;;;;;;3.70;2.80;;;13.70;68.10;;;14.63;41.18;100180.72;4845868;28;123494;-92
2022/01/24 13:01:17;;;;;;;3.90;2.73;;;13.90;67.90;;;14.79;40.77;100185.69;4871758;28;124128;-92
2022/01/24 13:04:10;;;;;;;2.10;1.90;;;14.00;67.40;;;14.96;40.72;100176.75;4856773;28;119269;-93
2022/01/24 13:06:41;;;;;;;2.97;2.37;;;14.20;66.90;;;15.12;40.15;100160.56;4875559;28;118523;-90
2022/01/24 13:09:29;;;;;;;2.60;2.37;;;14.40;66.80;;;15.31;40.01;100168.78;4868156;28;123407;-93
2022/01/24 13:12:04;;;;;;;3.77;2.83;;;14.60;66.40;;;15.49;39.12;100169.00;4865675;28;123449;-91
2022/01/24 13:14:44;;;;;;;4.87;2.70;;;14.80;65.00;;;15.60;38.95;100168.44;4871989;28;118662;-91
2022/01/24 13:23:11;;;;;;;4.53;2.40;;;15.30;64.40;;;15.99;38.56;100164.28;4882043;28;123682;-93
2022/01/24 13:25:43;;;;;;;3.63;2.50;;;15.40;63.90;;;16.12;38.36;100162.56;4873282;28;118254;-92
2022/01/24 13:28:13;;;;;;;2.83;2.10;;;15.60;63.60;;;16.26;38.32;100154.97;4872183;28;118062;-94
2022/01/24 13:31:17;;;;;;;4.37;2.40;;;15.70;63.30;;;16.43;38.05;100159.00;4875505;28;124176;-92
2022/01/24 13:33:49;;;;;;;2.33;1.90;;;15.90;62.70;;;16.55;37.50;100156.47;4868660;28;123975;-92
2022/01/24 13:36:19;;;;;;;2.83;2.57;;;16.00;62.40;;;16.69;37.13;100154.41;4857837;28;120600;-91
2022/01/24 13:38:51;;;;;;;3.57;2.53;;;16.10;61.20;;;16.81;36.81;100158.59;4864466;28;119446;-91
2022/01/24 13:41:24;;;;;;;3.90;2.50;;;16.30;60.60;;;16.94;36.98;100160.47;4845132;28;124438;-92
2022/01/24 13:44:03;;;;;;;4.30;2.13;;;16.40;61.10;;;17.12;36.88;100155.78;4851911;28;122897;-91
2022/01/24 13:46:41;;;;;;;2.10;1.90;;;16.60;61.00;;;17.25;36.62;100151.22;4871766;28;118832;-93
2022/01/24 13:49:19;;;;;;;2.60;2.40;;;16.70;60.40;;;17.37;36.32;100138.25;4873146;28;118394;-93
2022/01/24 13:51:52;;;;;;;2.60;1.87;;;16.90;60.00;;;17.52;36.06;100144.56;4860124;28;123254;-93
2022/01/24 13:54:26;;;;;;;3.07;2.37;;;17.00;59.60;;;17.62;35.60;100138.63;4841106;29;123615;-93
2022/01/24 13:57:16;;;;;;;3.63;2.43;;;17.20;58.90;;;17.71;35.44;100138.66;4843952;29;117714;-91
2022/01/24 13:59:43;;;;;;;3.13;1.93;;;17.30;58.40;;;17.77;35.16;100138.16;4847613;28;118473;-91
2022/01/24 14:02:33;;;;;;;3.17;2.30;;;17.40;57.90;;;17.86;35.00;100138.19;4871542;28;124589;-93
2022/01/24 14:05:03;;;;;;;4.13;2.37;;;17.60;56.80;;;17.92;34.85;100136.06;4855661;28;123803;-92
2022/01/24 14:07:33;;;;;;;3.33;2.00;;;17.70;56.90;;;17.97;34.63;100139.50;4856905;28;119346;-90
2022/01/24 14:10:07;;;;;;;3.93;1.90;;;17.80;56.10;;;18.05;34.41;100138.72;4872461;28;118588;-92
2022/01/24 14:12:56;;;;;;;2.67;1.93;;;17.90;55.80;;;18.16;34.29;100141.16;4866427;28;123517;-92
2022/01/24 14:16:01;;;;;;;2.83;2.00;;;18.00;55.20;;;18.27;34.25;100131.28;4866008;28;124006;-92
2022/01/24 14:18:31;;;;;;;2.13;1.70;;;18.10;55.00;;;18.36;34.13;100137.69;4865274;28;119664;-93
2022/01/24 14:21:13;;;;;;;3.33;2.00;;;18.20;54.70;;;18.47;33.52;100147.34;4863449;28;119617;-92
2022/01/24 14:24:00;;;;;;;3.73;2.90;;;18.30;53.80;;;18.55;33.56;100134.50;4869094;28;123227;-92
2022/01/24 14:26:29;;;;;;;5.97;4.33;;;18.50;53.60;;;18.66;33.50;100141.38;4848283;28;123030;-92
2022/01/24 14:29:13;;;;;;;4.43;3.20;;;18.60;53.40;;;18.77;33.39;100144.69;4852315;29;118756;-91
2022/01/24 14:31:44;;;;;;;3.83;2.43;;;18.80;52.80;;;18.85;33.03;100140.22;4851294;28;119041;-91
2022/01/24 14:34:17;;;;;;;2.40;1.90;;;19.00;52.20;;;18.95;32.59;100143.47;4855216;28;123850;-93
2022/01/24 14:36:59;;;;;;;2.77;2.23;;;19.20;51.30;;;19.06;32.41;100151.50;4880695;28;123544;-92
2022/01/24 14:39:25;;;;;;;6.17;2.40;;;19.40;50.60;;;19.15;32.42;100146.66;4840584;29;118955;-93
2022/01/24 14:41:53;;;;;;;5.00;1.93;;;19.60;50.40;;;19.27;32.17;100138.38;4871289;28;118252;-93
2022/01/24 14:47:08;;;;;;;4.20;2.20;;;20.10;49.00;;;19.54;31.56;100134.25;4877285;28;124586;-93
2022/01/24 14:49:40;;;;;;;3.80;2.27;;;20.30;48.30;;;19.68;31.67;100134.00;4873979;28;119471;-94
2022/01/24 14:52:14;;;;;;;3.93;2.23;;;20.70;47.70;;;19.81;31.20;100138.53;4872336;28;118331;-96
2022/01/24 14:54:42;;;;;;;6.30;2.77;;;20.90;46.50;;;19.90;31.26;100146.06;4856802;28;122453;-94
2022/01/24 14:57:27;;;;;;;3.10;2.00;;;21.20;46.00;;;20.03;30.54;100133.75;4879278;28;125160;-93
2022/01/24 14:59:55;;;;;;;5.80;2.27;;;21.60;44.90;;;20.18;30.77;100144.34;4859879;28;118788;-91
2022/01/24 15:02:23;;;;;;;3.50;2.37;;;21.90;44.40;;;20.36;30.56;100141.34;4888582;28;118979;-91
2022/01/24 15:04:49;;;;;;;4.90;2.30;;;22.20;43.70;;;20.56;29.99;100140.53;4869530;28;124388;-91
2022/01/24 15:07:16;;;;;;;6.57;2.50;;;22.60;43.00;;;20.65;30.05;100141.25;4851192;28;123470;-89
2022/01/24 15:09:43;;;;;;;3.10;2.40;;;22.70;42.10;;;20.58;29.61;100141.00;4871955;28;118762;-88
2022/01/24 15:12:10;;;;;;;4.10;2.20;;;22.70;41.30;;;20.43;29.49;100141.63;4855499;28;119587;-90
2022/01/24 15:14:42;;;;;;;2.60;2.00;;;22.50;40.70;;;20.23;29.26;100141.31;4873179;28;123026;-90
2022/01/24 15:27:52;;;;;;;3.00;2.30;;;20.40;40.60;;;18.76;30.11;100148.66;4875365;28;123960;-92
2022/01/24 15:30:25;;;;;;;3.63;2.27;;;20.10;40.90;;;18.49;30.47;100147.84;4878089;28;119426;-88
2022/01/24 15:32:53;;;;;;;4.20;2.30;;;19.70;41.20;;;18.24;30.67;100145.91;4877518;28;117972;-91
2022/01/24 15:35:21;;;;;;;3.77;2.40;;;19.30;41.60;;;17.99;30.77;100154.00;4876821;28;124211;-90
2022/01/24 15:38:06;;;;;;;3.13;2.40;;;18.90;41.70;;;17.72;30.82;100148.69;4881207;28;123284;-92
2022/01/24 15:40:53;;;;;;;2.17;1.90;;;18.60;41.70;;;17.42;31.28;100145.69;4882651;28;117372;-91
2022/01/24 15:46:02;;;;;;;4.43;2.57;;;17.90;42.40;;;16.93;31.72;100144.88;4881802;28;124918;-85
2022/01/24 15:48:29;;;;;;;2.67;2.10;;;17.60;42.60;;;16.68;31.72;100146.34;4885025;28;123837;-88
2022/01/24 15:50:55;;;;;;;3.83;2.23;;;17.30;43.00;;;16.46;32.10;100152.78;4880711;28;119737;-85
2022/01/24 15:53:22;;;;;;;4.33;2.40;;;17.10;43.30;;;16.23;32.66;100155.59;4871021;28;118108;-90
2022/01/24 15:56:12;;;;;;;3.70;2.53;;;16.80;43.60;;;16.02;32.76;100154.44;4902208;28;124100;-87
2022/01/24 15:58:37;;;;;;;4.30;2.30;;;16.60;44.00;;;15.77;33.08;100161.44;4899502;28;123404;-91
2022/01/24 16:01:22;;;;;;;3.73;2.40;;;16.30;44.30;;;15.55;33.43;100164.97;4880635;28;117833;-92
2022/01/24 16:03:50;;;;;;;4.43;2.77;;;16.00;44.50;;;15.32;33.76;100164.91;4895616;28;118806;-91
2022/01/24 16:06:55;;;;;;;4.90;2.80;;;15.80;44.90;;;15.11;34.16;100158.09;4897872;28;123519;-92
2022/01/24 16:09:24;;;;;;;5.17;2.60;;;15.50;45.30;;;14.91;34.30;100165.72;4899126;28;122850;-92
2022/01/24 16:12:29;;;;;;;3.80;2.67;;;15.30;45.80;;;14.69;34.82;100154.44;4881147;28;120376;-92
2022/01/24 16:15:19;;;;;;;5.60;3.50;;;15.00;46.10;;;14.51;34.91;100159.75;4889418;28;119739;-93
2022/01/24 16:17:47;;;;;;;7.00;3.70;;;14.80;46.60;;;14.34;35.16;100160.28;4887611;28;123753;-92
2022/01/24 16:20:43;;;;;;;6.53;3.10;;;14.60;46.90;;;14.21;35.38;100157.47;4896378;28;123092;-90
2022/01/24 16:27:31;;;;;;;3.37;2.70;;;14.20;47.60;;;13.76;36.18;100163.47;4900691;28;118930;-92
2022/01/24 16:29:57;;;;;;;6.87;3.00;;;14.00;48.20;;;13.60;36.62;100160.06;4888531;28;123957;-92
2022/01/24 16:32:24;;;;;;;7.23;2.40;;;13.80;48.50;;;13.50;36.83;100176.06;4909808;28;121984;-94
2022/01/24 16:34:50;;;;;;;5.37;3.00;;;13.60;49.40;;;13.38;37.03;100173.69;4886570;28;117175;-92
2022/01/24 16:37:18;;;;;;;3.20;2.57;;;13.50;49.00;;;13.26;37.08;100171.34;4908364;28;119363;-92
2022/01/24 16:39:45;;;;;;;5.07;2.40;;;13.40;49.30;;;13.14;37.29;100173.72;4905363;28;124419;-93
2022/01/24 16:42:15;;;;;;;3.33;2.60;;;13.20;49.50;;;13.02;37.59;100179.66;4879259;28;122980;-91
2022/01/24 16:44:57;;;;;;;2.77;2.47;;;13.10;49.80;;;12.90;37.54;100176.47;4888906;28;119642;-92
2022/01/24 16:47:24;;;;;;;4.27;3.00;;;12.90;50.00;;;12.75;37.92;100178.28;4895206;28;117869;-90
2022/01/24 16:49:53;;;;;;;3.80;2.77;;;12.80;50.30;;;12.66;38.05;100179.22;4875912;28;122459;-89
2022/01/24 16:52:20;;;;;;;4.70;2.20;;;12.70;50.60;;;12.56;38.15;100169.03;4862764;28;122039;-90
2022/01/24 16:55:07;;;;;;;4.43;2.67;;;12.50;50.90;;;12.44;38.72;100166.66;4889828;28;118780;-90
2022/01/24 16:57:52;;;;;;;3.20;2.20;;;12.40;51.20;;;12.32;38.67;100180.88;4883274;28;119556;-92
2022/01/24 17:00:21;;;;;;;4.10;2.20;;;12.30;51.60;;;12.20;39.35;100177.69;4884213;28;123541;-91
2022/01/24 17:03:46;;;;;;;3.40;2.90;;;12.20;51.80;;;12.07;39.13;100181.09;4884224;28;124156;-91
2022/01/24 17:06:14;;;;;;;5.10;3.50;;;12.10;52.20;;;11.95;39.66;100184.22;4882622;28;120241;-92
2022/01/24 17:08:43;;;;;;;6.47;3.83;;;11.90;52.50;;;11.86;39.59;100189.53;4889374;28;119108;-90
2022/01/24 17:11:30;;;;;;;5.40;3.67;;;11.80;52.80;;;11.79;39.89;100183.47;4871071;28;123323;-90
2022/01/24 17:14:34;;;;;;;5.47;3.77;;;11.70;53.20;;;11.69;39.96;100183.53;4879563;28;123570;-91
2022/01/24 17:17:38;;;;;;;4.83;3.20;;;11.60;53.50;;;11.60;40.44;100176.94;4887734;28;119495;-91
2022/01/24 17:20:08;;;;;;;4.87;3.20;;;11.50;53.80;;;11.50;40.49;100181.44;4876691;28;118848;-93
2022/01/24 17:22:35;;;;;;;6.43;3.87;;;11.40;54.10;;;11.42;40.81;100178.44;4882115;28;123996;-90
2022/01/24 17:25:58;;;;;;;4.70;3.47;;;11.30;54.20;;;11.33;40.80;100180.94;4870855;28;123680;-92
2022/01/24 17:28:27;;;;;;;5.27;3.60;;;11.20;54.60;;;11.23;41.23;100189.28;4878415;28;118603;-90
2022/01/24 17:31:33;;;;;;;4.20;2.93;;;11.10;54.80;;;11.15;41.03;100187.09;4883203;28;118464;-91
2022/01/24 17:34:01;;;;;;;4.80;2.97;;;11.00;55.10;;;11.05;41.44;100187.97;4870902;28;123633;-92
2022/01/24 17:36:49;;;;;;;8.07;3.73;;;10.90;55.30;;;10.99;41.62;100187.16;4879455;28;124613;-91
2022/01/24 17:40:13;;;;;;;6.20;3.57;;;10.80;55.70;;;10.87;41.75;100178.34;4874783;28;119265;-91
2022/01/24 17:42:42;;;;;;;5.87;3.77;;;10.70;55.90;;;10.75;41.85;100181.41;4876209;28;119283;-90
2022/01/24 17:45:12;;;;;;;6.53;3.83;;;10.60;56.20;;;10.71;42.38;100179.47;4882785;28;122121;-90
2022/01/24 17:47:46;;;;;;;6.63;4.43;;;10.50;56.50;;;10.65;42.25;100186.13;4882172;28;123919;-90
2022/01/24 17:50:34;;;;;;;10.50;4.07;;;10.50;56.80;;;10.60;42.82;100190.56;4880819;28;118673;-90
2022/01/24 17:53:02;;;;;;;6.30;3.70;;;10.40;57.10;;;10.52;42.71;100193.06;4871352;28;118379;-92
2022/01/24 17:55:29;;;;;;;8.93;5.10;;;10.30;57.30;;;10.48;42.81;100175.38;4866971;28;123361;-92
2022/01/24 17:58:17;;;;;;;10.80;5.90;;;10.30;57.60;;;10.43;43.11;100178.16;4878789;28;123321;-91
2022/01/24 18:01:24;;;;;;;8.17;4.80;;;10.20;57.80;;;10.34;43.00;100178.72;4874790;28;119165;-91
2022/01/24 18:04:10;;;;;;;6.60;4.80;;;10.10;58.00;;;10.29;43.25;100183.38;4879806;28;119317;-92
2022/01/24 18:06:44;;;;;;;8.70;5.30;;;10.00;58.20;;;10.22;43.64;100177.28;4882022;28;123582;-91
2022/01/24 18:09:49;;;;;;;8.90;4.93;;;9.90;59.50;;;10.16;43.69;100177.28;4852210;29;122342;-92
2022/01/24 18:12:17;;;;;;;6.47;4.63;;;9.90;59.80;;;10.10;43.84;100180.31;4862389;28;118574;-91
2022/01/24 18:15:04;;;;;;;8.00;4.20;;;9.90;60.00;;;10.06;44.11;100174.53;4878009;28;119788;-91
2022/01/24 18:17:33;;;;;;;8.03;4.40;;;9.80;60.40;;;10.01;44.21;100171.75;4887695;28;122006;-91
2022/01/24 18:20:19;;;;;;;8.33;4.90;;;9.70;60.50;;;9.98;44.25;100172.31;4862446;28;123179;-90
2022/01/24 18:22:50;;;;;;;8.17;5.30;;;9.70;60.90;;;9.93;44.56;100170.34;4877430;28;120104;-91
2022/01/24 18:25:56;;;;;;;7.47;5.57;;;9.50;60.90;;;9.87;44.44;100176.16;4871774;28;118664;-91
2022/01/24 18:28:22;;;;;;;6.10;4.77;;;9.50;61.20;;;9.82;44.50;100173.38;4871748;28;123034;-92
2022/01/24 18:30:50;;;;;;;6.80;4.40;;;9.50;61.50;;;9.80;44.88;100170.91;4865172;29;124393;-91
2022/01/24 18:33:18;;;;;;;5.87;4.93;;;9.40;61.60;;;9.77;44.92;100176.97;4863481;29;119215;-92
2022/01/24 18:36:04;;;;;;;7.40;5.53;;;9.40;61.90;;;9.76;44.83;100174.50;4880825;28;118498;-92
2022/01/24 18:38:32;;;;;;;6.30;4.60;;;9.40;62.20;;;9.70;45.25;100180.00;4889113;28;122203;-92
2022/01/24 18:41:00;;;;;;;9.00;5.67;;;9.30;62.30;;;9.67;45.20;100177.78;4893634;28;123629;-91
2022/01/24 18:43:29;;;;;;;6.63;5.20;;;9.30;62.60;;;9.61;45.43;100186.31;4882520;28;119305;-92
2022/01/24 18:45:57;;;;;;;13.40;6.23;;;9.20;62.70;;;9.57;45.64;100172.25;4863029;28;118667;-91
2022/01/24 18:48:28;;;;;;;8.50;4.40;;;9.20;63.00;;;9.54;45.56;100182.97;4881004;28;124136;-91
2022/01/24 18:51:15;;;;;;;6.93;4.97;;;9.10;63.20;;;9.51;45.64;100182.44;4876341;28;123635;-91
2022/01/24 18:54:00;;;;;;;7.53;4.87;;;9.10;63.50;;;9.50;45.68;100190.97;4876360;28;118586;-91
2022/01/24 18:57:23;;;;;;;8.47;5.70;;;9.10;63.70;;;9.43;45.72;100193.16;4895317;28;119353;-91
2022/01/24 18:59:51;;;;;;;8.90;5.43;;;9.00;63.90;;;9.37;46.19;100194.22;4902310;28;124015;-90
2022/01/24 19:02:19;;;;;;;6.80;4.97;;;9.00;64.10;;;9.34;46.13;100190.09;4888407;28;122146;-91
2022/01/24 19:04:47;;;;;;;7.10;5.03;;;9.00;64.30;;;9.31;46.30;100203.59;4885818;28;119133;-90
2022/01/24 19:07:52;;;;;;;8.30;6.03;;;8.90;64.40;;;9.28;46.29;100196.69;4899181;28;119059;-90
2022/01/24 19:10:19;;;;;;;11.47;6.33;;;8.90;64.70;;;9.20;46.10;100200.78;4907921;28;122731;-91
2022/01/24 19:12:50;;;;;;;11.30;6.90;;;8.90;64.80;;;9.16;46.62;100201.59;4914754;28;123180;-91
2022/01/24 19:15:24;;;;;;;13.13;6.03;;;8.80;65.00;;;9.10;46.62;100211.75;4896221;28;118879;-90
2022/01/24 19:24:39;;;;;;;10.90;5.23;;;8.70;65.70;;;8.95;46.99;100218.03;4911547;28;123557;-90
2022/01/24 19:27:06;;;;;;;8.10;5.53;;;8.60;65.90;;;8.87;47.39;100223.22;4903797;28;118588;-90
2022/01/24 19:30:12;;;;;;;13.33;6.77;;;8.50;65.90;;;8.84;47.24;100217.16;4872809;28;116791;-90
2022/01/24 19:36:21;;;;;;;10.23;5.27;;;8.40;66.40;;;8.72;47.47;100229.47;4902021;28;123888;-91
2022/01/24 19:39:09;;;;;;;10.80;5.30;;;8.40;66.70;;;8.71;47.54;100223.13;4869752;28;118229;-91
2022/01/24 19:45:23;;;;;;;10.60;6.33;;;8.30;67.10;;;8.60;48.01;100224.97;4912497;28;124444;-91
2022/01/24 19:48:47;;;;;;;9.90;5.90;;;8.30;67.30;;;8.58;48.07;100226.34;4890600;28;123316;-91
2022/01/24 19:51:33;;;;;;;10.67;6.17;;;8.20;67.60;;;8.53;48.32;100221.59;4906022;28;118583;-91
2022/01/24 19:54:24;;;;;;;13.23;7.80;;;8.10;67.70;;;8.50;48.11;100222.13;4873499;28;119933;-91
2022/01/24 19:57:14;;;;;;;9.70;5.97;;;8.10;68.00;;;8.47;48.50;100227.34;4897102;28;124251;-91
2022/01/24 19:59:49;;;;;;;9.00;6.27;;;8.10;68.20;;;8.44;48.20;100222.38;4903733;28;123873;-91
2022/01/24 20:02:37;;;;;;;12.30;7.50;;;8.00;68.30;;;8.42;48.59;100233.66;4908536;28;118842;-91
2022/01/24 20:05:04;;;;;;;11.00;6.77;;;8.00;68.50;;;8.36;48.61;100230.00;4911073;28;118500;-91
2022/01/24 20:07:32;;;;;;;8.83;6.20;;;8.00;68.70;;;8.34;48.75;100234.09;4900932;28;123037;-91
2022/01/24 20:13:40;;;;;;;11.47;7.03;;;7.90;69.00;;;8.24;48.87;100234.81;4899856;28;120244;-91
2022/01/24 20:23:52;;;;;;;10.60;6.17;;;7.80;69.50;;;8.09;49.14;100242.97;4920637;28;124507;-74
2022/01/24 20:55:13;;;;;;;9.73;6.50;;;7.40;71.10;;;7.79;49.89;100244.31;6014647;23;98961;31
2022/01/24 20:57:45;;;;;;;11.30;7.27;;;7.30;71.30;;;7.77;50.13;100240.97;4871239;29;118983;-91
2022/01/24 21:00:33;;;;;;;23.93;7.50;;;6.50;70.60;;;7.73;49.71;100246.16;4842391;29;118019;-90
2022/01/24 21:03:02;;;;;;;12.53;7.67;;;5.50;69.90;;;7.67;50.57;100249.13;4828084;29;123263;-91
2022/01/24 21:09:15;;;;;;;9.73;6.87;;;5.90;70.60;;;7.56;50.41;100248.16;4844432;29;120330;-74
2022/01/24 21:15:26;;;;;;;14.13;7.47;;;5.90;70.80;;;7.48;50.30;100246.69;4843722;29;125162;-84
2022/01/24 21:21:34;;;;;;;12.93;7.80;;;5.60;70.80;;;7.38;50.88;100243.81;4844354;29;120173;-74
2022/01/24 22:10:35;;;;;;;12.40;8.00;;;6.40;73.90;;;6.95;51.49;100236.38;4882748;28;119988;-85
2022/01/24 22:13:42;;;;;;;13.73;8.23;;;5.80;73.40;;;6.93;52.04;100228.41;4886860;28;117732;-89
2022/01/24 22:16:32;;;;;;;11.47;7.33;;;6.70;74.30;;;6.90;51.92;100228.88;4890046;28;124618;-89
2022/01/24 22:29:12;;;;;;;10.70;7.60;;;5.00;73.30;;;6.76;51.91;100230.31;4901792;28;125141;-88
2022/01/24 22:35:21;;;;;;;13.03;7.73;;;5.40;73.80;;;6.71;52.42;100225.56;4884115;28;120335;-87
2022/01/24 22:42:07;;;;;;;11.40;7.10;;;5.30;74.00;;;6.69;52.16;100236.00;4884054;28;126393;-81
2022/01/24 22:48:18;;;;;;;11.60;7.83;;;5.30;74.20;;;6.59;52.42;100231.19;4884495;28;121256;-90
2022/01/24 22:54:32;;;;;;;10.97;7.37;;;5.80;74.90;;;6.56;52.79;100241.84;4883444;29;124947;-89
2022/01/24 23:00:53;;;;;;;16.17;7.30;;;6.10;75.30;;;6.54;53.07;100246.75;4902295;28;120358;-89
2022/01/24 23:03:25;;;;;;;12.97;7.80;;;5.10;74.60;;;6.52;52.74;100244.22;4893882;28;118655;-90
2022/01/24 23:05:53;;;;;;;12.07;7.53;;;7.10;76.40;;;6.53;52.79;100245.91;4898088;28;123713;-90
2022/01/24 23:12:03;;;;;;;11.70;7.40;;;5.80;75.50;;;6.46;53.00;100238.94;4883128;29;120332;-91